createdAt,value
2018-01-21T00:01:20.138Z,96.00
2018-01-21T00:03:47.600Z,96.60
2018-01-21T00:06:15.131Z,95.80
2018-01-21T00:08:42.675Z,95.90
2018-01-21T00:11:10.166Z,96.10
2018-01-21T00:13:37.635Z,95.80
2018-01-21T00:16:05.167Z,95.80
2018-01-21T00:18:32.859Z,96.00
2018-01-21T00:21:00.363Z,95.70
2018-01-21T00:23:27.886Z,96.10
2018-01-21T00:25:55.382Z,95.80
2018-01-21T00:28:22.849Z,96.00
2018-01-21T00:30:51.313Z,96.10
2018-01-21T00:33:19.618Z,96.20
2018-01-21T00:35:47.158Z,96.10
2018-01-21T00:38:14.866Z,96.20
2018-01-21T00:40:43.105Z,96.20
2018-01-21T00:43:10.594Z,96.20
2018-01-21T00:45:38.354Z,96.60
2018-01-21T00:48:05.889Z,96.10
2018-01-21T00:50:33.432Z,96.50
2018-01-21T00:53:00.954Z,96.60
2018-01-21T00:55:29.218Z,97.00
2018-01-21T00:57:56.731Z,97.00
2018-01-21T01:00:24.645Z,97.10
2018-01-21T01:02:52.183Z,97.30
2018-01-21T01:05:19.650Z,96.60
2018-01-21T01:07:47.188Z,97.20
2018-01-21T01:10:14.716Z,97.70
2018-01-21T01:12:42.227Z,98.10
2018-01-21T01:15:09.779Z,98.70
2018-01-21T01:17:43.178Z,98.90
2018-01-21T01:20:10.990Z,98.30
2018-01-21T01:22:39.231Z,96.60
2018-01-21T01:25:06.698Z,96.60
2018-01-21T01:27:34.466Z,98.10
2018-01-21T01:30:01.935Z,99.40
2018-01-21T01:32:32.275Z,99.90
2018-01-21T01:34:59.778Z,99.90
2018-01-21T01:37:27.241Z,99.90
2018-01-21T01:39:54.779Z,99.90
2018-01-21T01:42:22.817Z,99.90
2018-01-21T01:44:50.343Z,99.90
2018-01-21T01:47:17.839Z,99.90
2018-01-21T01:49:45.713Z,99.90
2018-01-21T01:52:13.978Z,99.90
2018-01-21T01:54:42.205Z,99.90
2018-01-21T01:57:09.697Z,99.90
2018-01-21T01:59:37.170Z,99.90
2018-01-21T02:02:04.637Z,99.90
2018-01-21T02:04:32.246Z,99.90
2018-01-21T02:06:59.746Z,99.90
2018-01-21T02:09:27.219Z,99.90
2018-01-21T02:11:55.062Z,99.90
2018-01-21T02:14:22.532Z,99.90
2018-01-21T02:16:50.057Z,99.90
2018-01-21T02:19:17.798Z,99.90
2018-01-21T02:21:45.261Z,99.90
2018-01-21T02:24:12.766Z,99.90
2018-01-21T02:26:40.373Z,99.90
2018-01-21T02:29:07.880Z,99.90
2018-01-21T02:31:35.336Z,99.90
2018-01-21T02:34:02.865Z,99.90
2018-01-21T02:36:30.408Z,99.90
2018-01-21T02:38:57.915Z,99.90
2018-01-21T02:41:26.182Z,99.90
2018-01-21T02:43:54.414Z,99.90
2018-01-21T02:46:21.922Z,99.90
2018-01-21T02:48:49.453Z,99.90
2018-01-21T02:51:16.926Z,99.40
2018-01-21T02:53:44.394Z,98.40
2018-01-21T02:56:12.678Z,96.60
2018-01-21T02:58:40.190Z,96.60
2018-01-21T03:01:08.422Z,94.50
2018-01-21T03:03:36.106Z,94.50
2018-01-21T03:06:04.339Z,95.20
2018-01-21T03:08:31.830Z,94.80
2018-01-21T03:10:59.334Z,95.40
2018-01-21T03:13:26.799Z,95.60
2018-01-21T03:15:55.026Z,94.60
2018-01-21T03:18:28.525Z,94.60
2018-01-21T03:20:56.780Z,94.60
2018-01-21T03:23:24.278Z,94.40
2018-01-21T03:25:51.762Z,94.90
2018-01-21T03:28:19.288Z,94.10
2018-01-21T03:30:46.790Z,94.10
2018-01-21T03:33:14.544Z,94.30
2018-01-21T03:35:42.042Z,94.60
2018-01-21T03:38:09.497Z,94.30
2018-01-21T03:40:37.763Z,94.10
2018-01-21T03:43:05.994Z,94.40
2018-01-21T03:45:33.486Z,94.50
2018-01-21T03:48:01.042Z,95.10
2018-01-21T03:50:28.576Z,95.70
2018-01-21T03:52:56.041Z,95.70
2018-01-21T03:55:23.803Z,96.30
2018-01-21T03:57:51.273Z,96.40
2018-01-21T04:00:19.534Z,96.90
2018-01-21T04:02:47.947Z,96.60
2018-01-21T04:05:15.409Z,96.50
2018-01-21T04:07:42.914Z,96.40
2018-01-21T04:10:10.629Z,95.00
2018-01-21T04:12:38.882Z,95.40
2018-01-21T04:15:07.182Z,95.10
2018-01-21T04:17:34.711Z,95.40
2018-01-21T04:20:02.217Z,95.20
2018-01-21T04:22:30.260Z,94.40
2018-01-21T04:24:57.790Z,94.50
2018-01-21T04:27:25.294Z,93.40
2018-01-21T04:29:52.803Z,93.80
2018-01-21T04:32:20.367Z,93.40
2018-01-21T04:34:48.643Z,92.60
2018-01-21T04:37:16.142Z,92.60
2018-01-21T04:39:43.663Z,92.70
2018-01-21T04:42:11.166Z,93.40
2018-01-21T04:44:38.674Z,93.60
2018-01-21T04:47:06.243Z,93.60
2018-01-21T04:49:34.551Z,92.50
2018-01-21T04:52:02.820Z,92.70
2018-01-21T04:54:30.575Z,92.50
2018-01-21T04:56:58.067Z,93.70
2018-01-21T04:59:25.542Z,93.70
2018-01-21T05:01:53.394Z,92.20
2018-01-21T05:04:20.891Z,92.10
2018-01-21T05:06:49.182Z,93.10
2018-01-21T05:09:16.707Z,93.10
2018-01-21T05:11:44.206Z,92.40
2018-01-21T05:14:11.715Z,92.00
2018-01-21T05:16:39.263Z,92.70
2018-01-21T05:19:06.791Z,92.70
2018-01-21T05:21:34.261Z,91.80
2018-01-21T05:24:01.959Z,92.10
2018-01-21T05:26:30.260Z,93.00
2018-01-21T05:28:57.729Z,92.90
2018-01-21T05:31:25.614Z,92.80
2018-01-21T05:33:53.907Z,91.80
2018-01-21T05:36:21.406Z,91.80
2018-01-21T05:38:49.101Z,92.10
2018-01-21T05:41:16.577Z,92.50
2018-01-21T05:43:44.066Z,93.00
2018-01-21T05:46:11.570Z,93.90
2018-01-21T05:48:39.098Z,93.90
2018-01-21T05:51:06.585Z,93.90
2018-01-21T05:53:34.463Z,93.70
2018-01-21T05:56:01.930Z,94.40
2018-01-21T05:58:29.426Z,93.80
2018-01-21T06:00:56.954Z,94.00
2018-01-21T06:03:25.196Z,92.90
2018-01-21T06:05:53.518Z,93.60
2018-01-21T06:08:21.264Z,93.60
2018-01-21T06:10:48.775Z,93.80
2018-01-21T06:13:16.285Z,92.70
2018-01-21T06:15:43.802Z,92.80
2018-01-21T06:18:11.269Z,92.10
2018-01-21T06:20:38.787Z,91.70
2018-01-21T06:23:06.482Z,92.10
2018-01-21T06:25:34.759Z,92.10
2018-01-21T06:28:02.256Z,92.10
2018-01-21T06:30:29.734Z,92.90
2018-01-21T06:32:57.264Z,92.10
2018-01-21T06:35:25.493Z,92.60
2018-01-21T06:37:53.994Z,92.00
2018-01-21T06:40:22.261Z,92.00
2018-01-21T06:42:50.523Z,91.30
2018-01-21T06:45:18.087Z,91.30
2018-01-21T06:47:45.636Z,91.60
2018-01-21T06:50:13.142Z,92.10
2018-01-21T06:52:41.430Z,91.60
2018-01-21T06:55:08.930Z,91.60
2018-01-21T06:57:36.434Z,91.70
2018-01-21T07:00:04.270Z,91.60
2018-01-21T07:02:31.746Z,91.40
2018-01-21T07:04:59.251Z,91.30
2018-01-21T07:07:27.110Z,91.40
2018-01-21T07:09:54.634Z,91.60
2018-01-21T07:12:22.126Z,91.90
2018-01-21T07:14:49.680Z,92.00
2018-01-21T07:17:17.149Z,92.10
2018-01-21T07:19:45.382Z,92.50
2018-01-21T07:22:12.874Z,92.50
2018-01-21T07:24:40.550Z,92.50
2018-01-21T07:27:08.056Z,92.50
2018-01-21T07:29:35.571Z,92.70
2018-01-21T07:32:03.029Z,92.80
2018-01-21T07:34:31.324Z,92.80
2018-01-21T07:36:59.095Z,92.80
2018-01-21T07:39:26.565Z,92.30
2018-01-21T07:41:54.062Z,91.60
2018-01-21T07:44:21.907Z,91.50
2018-01-21T07:46:49.377Z,91.40
2018-01-21T07:49:16.903Z,91.50
2018-01-21T07:51:44.598Z,91.00
2018-01-21T07:54:12.895Z,91.20
2018-01-21T07:56:40.394Z,91.20
2018-01-21T07:59:08.665Z,90.70
2018-01-21T08:01:36.901Z,90.90
2018-01-21T08:04:04.574Z,90.90
2018-01-21T08:06:33.019Z,90.50
2018-01-21T08:09:00.514Z,90.50
2018-01-21T08:11:28.010Z,90.80
2018-01-21T08:13:55.802Z,90.60
2018-01-21T08:16:23.273Z,90.20
2018-01-21T08:18:50.736Z,90.70
2018-01-21T08:21:18.611Z,90.60
2018-01-21T08:23:46.872Z,90.60
2018-01-21T08:26:14.396Z,90.60
2018-01-21T08:28:41.873Z,90.50
2018-01-21T08:31:09.399Z,91.00
2018-01-21T08:33:36.901Z,90.60
2018-01-21T08:36:10.258Z,91.00
2018-01-21T08:38:43.541Z,89.10
2018-01-21T08:41:16.694Z,88.90
2018-01-21T08:43:44.186Z,89.30
2018-01-21T08:46:11.684Z,90.10
2018-01-21T08:48:39.208Z,90.30
2018-01-21T08:51:06.673Z,89.30
2018-01-21T08:53:34.218Z,90.20
2018-01-21T08:56:01.768Z,90.50
2018-01-21T08:58:29.274Z,90.10
2018-01-21T09:00:56.787Z,89.60
2018-01-21T09:03:24.409Z,86.00
2018-01-21T09:05:51.956Z,88.20
2018-01-21T09:08:19.458Z,88.10
2018-01-21T09:10:46.995Z,83.90
2018-01-21T09:13:15.277Z,81.50
2018-01-21T09:15:42.802Z,81.50
2018-01-21T09:20:50.099Z,82.50
2018-01-21T09:23:17.561Z,84.30
2018-01-21T09:25:45.104Z,83.20
2018-01-21T09:28:12.825Z,83.60
2018-01-21T09:30:40.330Z,82.00
2018-01-21T09:33:08.592Z,83.20
2018-01-21T09:35:36.863Z,84.40
2018-01-21T09:38:05.146Z,84.90
2018-01-21T09:40:32.663Z,84.80
2018-01-21T09:43:00.963Z,82.60
2018-01-21T09:45:28.488Z,82.50
2018-01-21T09:47:55.982Z,84.90
2018-01-21T09:50:23.526Z,82.70
2018-01-21T09:52:51.024Z,81.30
2018-01-21T09:55:18.588Z,83.20
2018-01-21T09:57:46.134Z,82.80
2018-01-21T10:00:13.638Z,80.90
2018-01-21T10:02:41.134Z,83.00
2018-01-21T10:05:08.954Z,81.40
2018-01-21T10:07:36.455Z,79.90
2018-01-21T10:10:04.682Z,80.20
2018-01-21T10:12:32.310Z,80.20
2018-01-21T10:14:59.811Z,79.70
2018-01-21T10:17:27.347Z,78.90
2018-01-21T10:19:55.738Z,80.30
2018-01-21T10:22:23.214Z,80.20
2018-01-21T10:24:50.741Z,79.60
2018-01-21T10:27:18.362Z,76.50
2018-01-21T10:29:45.912Z,76.50
2018-01-21T10:32:14.110Z,78.30
2018-01-21T10:34:41.690Z,78.30
2018-01-21T10:37:09.954Z,77.30
2018-01-21T10:39:37.450Z,77.20
2018-01-21T10:42:05.062Z,74.90
2018-01-21T10:44:32.517Z,75.80
2018-01-21T10:47:00.019Z,74.70
2018-01-21T10:49:28.339Z,75.50
2018-01-21T10:51:55.867Z,75.40
2018-01-21T10:54:23.359Z,76.90
2018-01-21T10:56:51.834Z,76.30
2018-01-21T10:59:20.145Z,76.10
2018-01-21T11:01:47.655Z,76.10
2018-01-21T11:04:15.175Z,74.80
2018-01-21T11:06:42.815Z,74.80
2018-01-21T11:09:11.059Z,74.40
2018-01-21T11:11:38.763Z,74.40
2018-01-21T11:14:06.242Z,76.60
2018-01-21T11:16:34.493Z,74.00
2018-01-21T11:19:02.352Z,73.80
2018-01-21T11:21:29.865Z,72.20
2018-01-21T11:23:57.361Z,73.50
2018-01-21T11:26:25.981Z,72.60
2018-01-21T11:28:53.434Z,72.50
2018-01-21T11:31:20.935Z,73.20
2018-01-21T11:33:49.315Z,73.20
2018-01-21T11:36:16.822Z,73.10
2018-01-21T11:38:45.086Z,73.00
2018-01-21T11:41:13.353Z,71.10
2018-01-21T11:43:41.643Z,71.10
2018-01-21T11:46:09.130Z,71.10
2018-01-21T11:48:36.963Z,71.10
2018-01-21T11:51:04.467Z,73.90
2018-01-21T11:53:31.991Z,73.30
2018-01-21T11:55:59.807Z,70.20
2018-01-21T11:58:27.316Z,71.40
2018-01-21T12:00:54.820Z,71.00
2018-01-21T12:03:23.094Z,73.10
2018-01-21T12:05:51.326Z,74.00
2018-01-21T12:08:18.859Z,73.90
2018-01-21T12:10:46.552Z,71.40
2018-01-21T12:13:14.086Z,71.40
2018-01-21T12:15:41.590Z,69.70
2018-01-21T12:18:09.174Z,70.70
2018-01-21T12:20:36.691Z,70.50
2018-01-21T12:23:04.199Z,71.10
2018-01-21T12:25:31.926Z,70.70
2018-01-21T12:27:59.431Z,71.80
2018-01-21T12:30:27.146Z,73.70
2018-01-21T12:32:54.725Z,71.50
2018-01-21T12:35:22.994Z,69.30
2018-01-21T12:37:51.263Z,70.50
2018-01-21T12:40:19.658Z,69.30
2018-01-21T12:42:47.151Z,69.40
2018-01-21T12:45:15.427Z,71.00
2018-01-21T12:47:43.712Z,71.20
2018-01-21T12:50:11.209Z,71.20
2018-01-21T12:52:39.491Z,71.60
2018-01-21T12:55:07.122Z,71.50
2018-01-21T12:57:35.427Z,71.40
2018-01-21T13:00:02.931Z,71.20
2018-01-21T13:02:31.190Z,70.20
2018-01-21T13:04:59.462Z,71.70
2018-01-21T13:07:27.686Z,69.50
2018-01-21T13:09:55.926Z,69.50
2018-01-21T13:12:23.389Z,70.40
2018-01-21T13:14:50.869Z,71.80
2018-01-21T13:17:18.644Z,70.30
2018-01-21T13:19:46.151Z,69.40
2018-01-21T13:22:14.414Z,69.70
2018-01-21T13:24:41.993Z,69.70
2018-01-21T13:27:09.490Z,70.40
2018-01-21T13:29:37.729Z,70.60
2018-01-21T13:32:05.225Z,70.70
2018-01-21T13:34:32.722Z,71.20
2018-01-21T13:37:00.194Z,71.80
2018-01-21T13:39:27.814Z,72.70
2018-01-21T13:41:55.285Z,71.10
2018-01-21T13:44:22.782Z,71.00
2018-01-21T13:46:50.311Z,71.80
2018-01-21T13:49:17.811Z,71.60
2018-01-21T13:51:45.344Z,72.50
2018-01-21T13:54:13.888Z,69.80
2018-01-21T13:56:41.349Z,69.70
2018-01-21T13:59:09.629Z,72.30
2018-01-21T14:01:37.490Z,72.20
2018-01-21T14:04:04.999Z,70.20
2018-01-21T14:06:33.282Z,71.80
2018-01-21T14:09:01.014Z,71.70
2018-01-21T14:11:29.307Z,74.10
2018-01-21T14:13:56.840Z,74.10
2018-01-21T14:16:24.472Z,74.60
2018-01-21T14:18:52.004Z,72.10
2018-01-21T14:21:20.274Z,71.20
2018-01-21T14:23:48.855Z,73.30
2018-01-21T14:26:16.359Z,73.30
2018-01-21T14:28:43.904Z,73.00
2018-01-21T14:31:12.163Z,70.80
2018-01-21T14:33:40.627Z,72.30
2018-01-21T14:36:08.933Z,72.40
2018-01-21T14:38:36.758Z,72.40
2018-01-21T14:41:05.031Z,73.70
2018-01-21T14:43:32.600Z,73.60
2018-01-21T14:46:00.218Z,73.20
2018-01-21T14:48:27.724Z,72.90
2018-01-21T14:50:56.023Z,74.40
2018-01-21T14:53:23.530Z,74.40
2018-01-21T14:55:51.059Z,74.20
2018-01-21T14:58:18.593Z,73.60
2018-01-21T15:00:46.112Z,73.30
2018-01-21T15:03:13.609Z,74.40
2018-01-21T15:05:41.939Z,76.70
2018-01-21T15:08:09.478Z,75.50
2018-01-21T15:10:36.987Z,75.40
2018-01-21T15:13:04.491Z,76.80
2018-01-21T15:15:32.010Z,77.40
2018-01-21T15:17:59.509Z,78.50
2018-01-21T15:20:27.031Z,78.50
2018-01-21T15:22:54.895Z,78.90
2018-01-21T15:25:22.422Z,78.70
2018-01-21T15:27:49.943Z,78.90
2018-01-21T15:30:17.475Z,77.50
2018-01-21T15:32:45.007Z,78.20
2018-01-21T15:35:12.556Z,77.40
2018-01-21T15:37:40.168Z,76.80
2018-01-21T15:40:08.458Z,78.30
2018-01-21T15:42:35.931Z,78.30
2018-01-21T15:45:03.495Z,78.30
2018-01-21T15:47:31.771Z,77.70
2018-01-21T15:49:59.280Z,77.60
2018-01-21T15:52:27.191Z,79.40
2018-01-21T15:54:54.686Z,78.80
2018-01-21T15:57:22.152Z,79.30
2018-01-21T15:59:49.686Z,79.90
2018-01-21T16:02:17.955Z,80.30
2018-01-21T16:04:45.421Z,80.40
2018-01-21T16:07:13.060Z,80.60
2018-01-21T16:09:40.600Z,80.80
2018-01-21T16:12:08.070Z,79.90
2018-01-21T16:14:35.591Z,80.30
2018-01-21T16:17:03.103Z,80.70
2018-01-21T16:19:31.386Z,81.20
2018-01-21T16:21:59.009Z,81.20
2018-01-21T16:24:27.279Z,80.60
2018-01-21T16:26:55.535Z,80.80
2018-01-21T16:29:23.418Z,80.70
2018-01-21T16:31:50.915Z,80.10
2018-01-21T16:34:19.141Z,80.40
2018-01-21T16:36:47.071Z,80.40
2018-01-21T16:39:14.566Z,80.70
2018-01-21T16:41:42.836Z,85.10
2018-01-21T16:44:11.146Z,84.70
2018-01-21T16:46:38.675Z,84.60
2018-01-21T16:49:06.179Z,81.20
2018-01-21T16:51:34.690Z,80.90
2018-01-21T16:54:02.146Z,80.90
2018-01-21T16:56:29.610Z,81.00
2018-01-21T16:58:57.227Z,80.60
2018-01-21T17:01:24.718Z,80.80
2018-01-21T17:03:52.219Z,80.70
2018-01-21T17:06:19.969Z,81.10
2018-01-21T17:08:47.475Z,81.20
2018-01-21T17:11:14.954Z,82.00
2018-01-21T17:13:42.499Z,82.30
2018-01-21T17:16:10.008Z,83.20
2018-01-21T17:18:37.481Z,83.00
2018-01-21T17:21:05.321Z,82.90
2018-01-21T17:23:32.790Z,84.60
2018-01-21T17:26:00.299Z,85.00
2018-01-21T17:28:27.859Z,85.90
2018-01-21T17:30:55.366Z,85.40
2018-01-21T17:33:22.906Z,85.90
2018-01-21T17:35:50.676Z,86.20
2018-01-21T17:38:18.228Z,86.10
2018-01-21T17:40:45.739Z,84.80
2018-01-21T17:43:13.241Z,85.20
2018-01-21T17:45:40.751Z,86.10
2018-01-21T17:48:08.258Z,85.70
2018-01-21T17:50:35.935Z,85.70
2018-01-21T17:53:03.436Z,85.30
2018-01-21T17:55:31.715Z,85.70
2018-01-21T17:57:59.283Z,85.60
2018-01-21T18:00:26.817Z,85.30
2018-01-21T18:02:54.327Z,85.40
2018-01-21T18:05:22.647Z,85.30
2018-01-21T18:07:50.196Z,85.30
2018-01-21T18:10:17.674Z,87.10
2018-01-21T18:12:46.149Z,84.20
2018-01-21T18:15:14.428Z,85.70
2018-01-21T18:17:41.960Z,85.60
2018-01-21T18:20:09.906Z,86.00
2018-01-21T18:22:38.208Z,85.20
2018-01-21T18:25:05.720Z,85.20
2018-01-21T18:27:33.380Z,86.40
2018-01-21T18:30:00.879Z,86.20
2018-01-21T18:32:29.163Z,87.90
2018-01-21T18:34:56.842Z,87.60
2018-01-21T18:37:24.363Z,87.50
2018-01-21T18:39:52.034Z,87.50
2018-01-21T18:42:19.809Z,87.50
2018-01-21T18:44:47.341Z,86.70
2018-01-21T18:47:14.872Z,87.10
2018-01-21T18:49:42.411Z,87.20
2018-01-21T18:52:09.919Z,86.30
2018-01-21T18:54:38.190Z,84.50
2018-01-21T18:57:05.748Z,84.50
2018-01-21T18:59:33.253Z,81.70
2018-01-21T19:02:00.779Z,80.90
2018-01-21T19:04:28.382Z,81.70
2018-01-21T19:06:55.916Z,81.30
2018-01-21T19:09:23.446Z,80.30
2018-01-21T19:11:51.186Z,82.10
2018-01-21T19:14:19.489Z,85.40
2018-01-21T19:16:47.015Z,85.40
2018-01-21T19:19:14.765Z,86.90
2018-01-21T19:21:42.258Z,88.10
2018-01-21T19:24:09.735Z,88.40
2018-01-21T19:26:37.428Z,88.90
2018-01-21T19:29:04.982Z,88.10
2018-01-21T19:31:32.540Z,88.20
2018-01-21T19:34:00.939Z,88.60
2018-01-21T19:36:28.439Z,88.60
2018-01-21T19:42:13.553Z,90.70
2018-01-21T19:44:41.070Z,90.80
2018-01-21T19:47:08.586Z,91.30
2018-01-21T19:49:36.079Z,90.70
2018-01-21T19:52:03.612Z,91.10
2018-01-21T19:54:31.085Z,91.00
2018-01-21T19:56:58.655Z,91.50
2018-01-21T19:59:26.199Z,91.90
2018-01-21T20:01:53.737Z,91.80
2018-01-21T20:04:21.214Z,91.70
2018-01-21T20:06:49.053Z,92.00
2018-01-21T20:09:16.571Z,92.10
2018-01-21T20:11:44.068Z,92.00
2018-01-21T20:14:11.930Z,92.60
2018-01-21T20:16:39.428Z,92.30
2018-01-21T20:19:06.983Z,91.90
2018-01-21T20:21:34.519Z,92.00
2018-01-21T20:24:02.785Z,91.80
2018-01-21T20:26:30.328Z,91.70
2018-01-21T20:28:57.996Z,91.40
2018-01-21T20:31:25.470Z,91.40
2018-01-21T20:33:53.007Z,91.70
2018-01-21T20:36:20.558Z,91.60
2018-01-21T20:38:48.059Z,92.20
2018-01-21T20:41:15.542Z,92.10
2018-01-21T20:43:43.196Z,92.30
2018-01-21T20:46:10.713Z,92.30
2018-01-21T20:48:38.212Z,92.70
2018-01-21T20:51:12.313Z,92.50
2018-01-21T20:53:45.484Z,92.50
2018-01-21T20:56:14.031Z,92.50
2018-01-21T20:58:41.561Z,92.50
2018-01-21T21:01:09.027Z,92.30
2018-01-21T21:03:37.352Z,92.20
2018-01-21T21:06:04.877Z,92.20
2018-01-21T21:08:32.341Z,91.90
2018-01-21T21:11:00.015Z,91.50
2018-01-21T21:13:27.539Z,91.60
2018-01-21T21:15:55.039Z,91.60
2018-01-21T21:18:22.571Z,91.60
2018-01-21T21:20:50.078Z,91.20
2018-01-21T21:23:17.552Z,91.20
2018-01-21T21:25:45.127Z,91.10
2018-01-21T21:28:12.638Z,90.40
2018-01-21T21:30:40.174Z,90.50
2018-01-21T21:33:08.438Z,90.60
2018-01-21T21:35:35.976Z,90.60
2018-01-21T21:38:03.487Z,90.80
2018-01-21T21:40:31.048Z,90.90
2018-01-21T21:42:59.353Z,91.00
2018-01-21T21:45:26.860Z,90.90
2018-01-21T21:47:55.162Z,91.00
2018-01-21T21:50:22.701Z,91.10
2018-01-21T21:52:50.203Z,91.10
2018-01-21T21:55:17.930Z,91.10
2018-01-21T21:57:45.463Z,91.00
2018-01-21T22:00:12.966Z,91.10
2018-01-21T22:02:40.495Z,91.10
2018-01-21T22:05:08.044Z,91.10
2018-01-21T22:07:35.571Z,91.00
2018-01-21T22:10:04.180Z,91.50
2018-01-21T22:12:31.691Z,91.10
2018-01-21T22:14:59.925Z,91.10
2018-01-21T22:17:27.438Z,91.10
2018-01-21T22:19:54.906Z,91.10
2018-01-21T22:22:22.449Z,91.00
2018-01-21T22:24:49.982Z,91.40
2018-01-21T22:27:17.459Z,91.50
2018-01-21T22:29:45.707Z,91.50
2018-01-21T22:32:13.298Z,91.50
2018-01-21T22:34:40.831Z,91.20
2018-01-21T22:37:08.410Z,91.30
2018-01-21T22:39:35.977Z,91.40
2018-01-21T22:42:03.449Z,91.00
2018-01-21T22:44:30.959Z,91.00
2018-01-21T22:46:58.463Z,91.30
2018-01-21T22:49:25.989Z,91.50
2018-01-21T22:51:53.496Z,91.60
2018-01-21T22:54:22.009Z,91.50
2018-01-21T22:56:49.522Z,91.60
2018-01-21T22:59:17.784Z,91.40
2018-01-21T23:01:45.279Z,91.40
2018-01-21T23:04:12.871Z,91.50
2018-01-21T23:06:40.416Z,91.60
2018-01-21T23:09:08.159Z,91.40
2018-01-21T23:11:35.680Z,91.10
2018-01-21T23:14:03.150Z,91.30
2018-01-21T23:16:30.777Z,91.40
2018-01-21T23:18:58.309Z,91.60
2018-01-21T23:21:25.816Z,91.70
2018-01-21T23:23:54.299Z,91.50
2018-01-21T23:26:21.827Z,91.50
2018-01-21T23:28:49.343Z,92.00
2018-01-21T23:31:16.993Z,91.50
2018-01-21T23:33:44.499Z,91.40
2018-01-21T23:36:12.037Z,91.70
2018-01-21T23:38:39.595Z,91.60
2018-01-21T23:41:07.875Z,91.80
2018-01-21T23:43:35.382Z,91.80
2018-01-21T23:46:03.087Z,91.80
2018-01-21T23:48:30.616Z,91.80
2018-01-21T23:50:58.118Z,92.10
2018-01-21T23:53:25.634Z,91.90
2018-01-21T23:55:53.136Z,91.90
2018-01-21T23:58:20.684Z,91.90
